createdAt,value
2019-01-30T00:04:07.388Z,2.10
2019-01-30T00:09:13.485Z,2.10
2019-01-30T00:14:19.585Z,2.10
2019-01-30T00:19:25.456Z,2.10
2019-01-30T00:24:32.007Z,2.00
2019-01-30T00:29:37.956Z,2.10
2019-01-30T00:34:44.025Z,2.10
2019-01-30T00:39:50.077Z,2.00
2019-01-30T00:44:56.060Z,2.10
2019-01-30T00:50:01.986Z,2.00
2019-01-30T00:55:08.371Z,2.10
2019-01-30T01:00:17.090Z,2.00
2019-01-30T01:05:23.296Z,2.00
2019-01-30T01:10:29.474Z,2.00
2019-01-30T01:15:35.541Z,1.90
2019-01-30T01:20:42.653Z,2.00
2019-01-30T01:25:48.670Z,2.00
2019-01-30T01:30:54.954Z,2.00
2019-01-30T01:36:01.300Z,2.00
2019-01-30T01:41:07.296Z,1.90
2019-01-30T01:46:13.346Z,1.90
2019-01-30T01:51:19.362Z,2.00
2019-01-30T01:56:25.372Z,1.90
2019-01-30T02:01:31.709Z,1.90
2019-01-30T02:06:37.665Z,1.90
2019-01-30T02:11:43.767Z,1.70
2019-01-30T02:16:49.928Z,1.90
2019-01-30T02:21:55.935Z,1.70
2019-01-30T02:27:01.849Z,1.40
2019-01-30T02:32:09.875Z,1.50
2019-01-30T02:37:15.884Z,1.60
2019-01-30T02:42:21.856Z,1.70
2019-01-30T02:47:27.822Z,1.70
2019-01-30T02:52:33.990Z,1.80
2019-01-30T02:57:39.974Z,1.70
2019-01-30T03:02:46.005Z,1.60
2019-01-30T03:07:52.305Z,1.80
2019-01-30T03:12:58.340Z,1.70
2019-01-30T03:18:04.780Z,1.50
2019-01-30T03:23:10.788Z,1.60
2019-01-30T03:28:16.789Z,1.60
2019-01-30T03:33:22.666Z,1.60
2019-01-30T03:38:28.597Z,1.60
2019-01-30T03:43:34.545Z,1.50
2019-01-30T03:48:40.687Z,1.50
2019-01-30T03:53:46.606Z,1.60
2019-01-30T03:58:52.449Z,1.40
2019-01-30T04:03:58.550Z,1.20
2019-01-30T04:09:07.322Z,1.30
2019-01-30T04:14:13.262Z,1.50
2019-01-30T04:19:19.252Z,1.30
2019-01-30T04:24:25.489Z,1.40
2019-01-30T04:29:31.413Z,1.50
2019-01-30T04:34:37.452Z,1.60
2019-01-30T04:39:45.039Z,1.50
2019-01-30T04:44:50.965Z,1.50
2019-01-30T04:49:56.921Z,1.60
2019-01-30T04:55:03.155Z,1.60
2019-01-30T05:00:11.733Z,1.70
2019-01-30T05:05:17.816Z,1.40
2019-01-30T05:10:23.760Z,1.60
2019-01-30T05:15:29.913Z,1.60
2019-01-30T05:20:36.312Z,1.60
2019-01-30T05:25:42.313Z,1.50
2019-01-30T05:30:48.238Z,1.50
2019-01-30T05:35:54.263Z,1.50
2019-01-30T05:41:00.215Z,1.50
2019-01-30T05:46:07.128Z,1.60
2019-01-30T05:51:16.790Z,1.70
2019-01-30T05:56:22.812Z,1.50
2019-01-30T06:01:28.801Z,1.70
2019-01-30T06:06:41.159Z,1.80
2019-01-30T06:11:47.245Z,1.80
2019-01-30T06:16:53.814Z,1.70
2019-01-30T06:21:59.809Z,1.60
2019-01-30T06:27:05.803Z,1.40
2019-01-30T06:32:21.497Z,1.70
2019-01-30T06:37:19.387Z,1.80
2019-01-30T06:42:27.127Z,1.60
2019-01-30T06:47:33.175Z,1.60
2019-01-30T06:52:39.174Z,1.50
2019-01-30T06:57:45.385Z,1.60
2019-01-30T07:02:51.531Z,1.50
2019-01-30T07:07:57.445Z,1.80
2019-01-30T07:13:03.537Z,1.80
2019-01-30T07:18:09.597Z,1.80
2019-01-30T07:23:15.668Z,1.90
2019-01-30T07:28:21.669Z,1.70
2019-01-30T07:33:27.696Z,1.80
2019-01-30T07:38:33.756Z,2.00
2019-01-30T07:43:39.886Z,1.90
2019-01-30T07:48:45.736Z,1.80
2019-01-30T07:53:54.711Z,1.80
2019-01-30T07:58:59.684Z,2.00
2019-01-30T08:04:05.905Z,2.10
2019-01-30T08:09:13.190Z,1.70
2019-01-30T08:14:19.289Z,1.80
2019-01-30T08:19:25.313Z,1.60
2019-01-30T08:24:31.811Z,1.50
2019-01-30T08:29:38.198Z,1.40
2019-01-30T08:34:44.373Z,1.60
2019-01-30T08:39:50.468Z,1.30
2019-01-30T08:44:56.521Z,1.50
2019-01-30T08:50:02.536Z,1.70
2019-01-30T08:55:08.931Z,1.90
2019-01-30T09:00:18.433Z,2.10
2019-01-30T09:05:24.444Z,2.30
2019-01-30T09:10:30.486Z,2.30
2019-01-30T09:15:37.573Z,2.10
2019-01-30T09:20:43.507Z,2.30
2019-01-30T09:25:49.547Z,2.00
2019-01-30T09:30:55.422Z,1.80
2019-01-30T09:36:01.359Z,1.90
2019-01-30T09:41:07.425Z,2.20
2019-01-30T09:46:13.431Z,2.10
2019-01-30T09:51:19.360Z,2.30
2019-01-30T09:56:25.388Z,2.10
2019-01-30T10:01:31.645Z,2.10
2019-01-30T10:06:37.649Z,2.20
2019-01-30T10:11:43.703Z,2.10
2019-01-30T10:16:49.668Z,2.10
2019-01-30T10:21:55.665Z,2.30
2019-01-30T10:27:01.707Z,2.60
2019-01-30T10:32:07.744Z,2.80
2019-01-30T10:37:13.857Z,2.80
2019-01-30T10:42:20.138Z,2.80
2019-01-30T10:47:26.200Z,2.70
2019-01-30T10:52:32.229Z,2.70
2019-01-30T10:57:38.331Z,2.70
2019-01-30T11:02:46.442Z,2.70
2019-01-30T11:07:52.004Z,2.70
2019-01-30T11:12:58.112Z,2.80
2019-01-30T11:18:05.944Z,2.80
2019-01-30T11:23:11.938Z,2.90
2019-01-30T11:28:17.949Z,2.90
2019-01-30T11:33:23.912Z,2.80
2019-01-30T11:38:29.941Z,2.80
2019-01-30T11:43:38.382Z,2.80
2019-01-30T11:48:44.860Z,2.80
2019-01-30T11:53:50.852Z,2.80
2019-01-30T11:58:57.127Z,2.70
2019-01-30T12:04:03.145Z,2.80
2019-01-30T12:09:09.155Z,2.80
2019-01-30T12:14:15.096Z,2.80
2019-01-30T12:19:21.046Z,2.80
2019-01-30T12:24:27.069Z,2.90
2019-01-30T12:29:33.765Z,2.90
2019-01-30T12:34:39.709Z,2.90
2019-01-30T12:39:45.615Z,2.90
2019-01-30T12:44:51.600Z,2.80
2019-01-30T12:49:58.068Z,2.90
2019-01-30T12:55:04.924Z,2.90
2019-01-30T13:00:16.652Z,2.90
2019-01-30T13:05:25.373Z,2.90
2019-01-30T13:10:31.436Z,2.90
2019-01-30T13:15:37.477Z,2.90
2019-01-30T13:20:43.492Z,3.00
2019-01-30T13:25:49.516Z,3.00
2019-01-30T13:30:55.854Z,3.10
2019-01-30T13:36:01.845Z,3.20
2019-01-30T13:41:09.371Z,3.20
2019-01-30T13:46:15.436Z,3.10
2019-01-30T13:51:21.554Z,3.20
2019-01-30T13:56:27.586Z,3.30
2019-01-30T14:01:33.735Z,3.30
2019-01-30T14:06:39.897Z,3.20
2019-01-30T14:11:45.902Z,3.20
2019-01-30T14:16:51.893Z,3.20
2019-01-30T14:21:57.957Z,3.30
2019-01-30T14:27:03.934Z,3.30
2019-01-30T14:32:09.972Z,3.20
2019-01-30T14:37:16.047Z,3.20
2019-01-30T14:42:22.056Z,3.20
2019-01-30T14:47:27.962Z,3.10
2019-01-30T14:52:34.193Z,3.20
2019-01-30T14:57:40.092Z,3.30
2019-01-30T15:02:46.298Z,3.20
2019-01-30T15:07:52.397Z,3.20
2019-01-30T15:12:58.470Z,3.30
2019-01-30T15:18:05.048Z,3.30
2019-01-30T15:23:11.060Z,3.20
2019-01-30T15:28:16.984Z,3.10
2019-01-30T15:33:23.941Z,3.10
2019-01-30T15:38:29.997Z,3.10
2019-01-30T15:43:36.079Z,3.20
2019-01-30T15:48:42.102Z,3.10
2019-01-30T15:53:48.745Z,3.20
2019-01-30T15:58:56.563Z,3.10
2019-01-30T16:04:05.947Z,2.90
2019-01-30T16:09:10.706Z,2.80
2019-01-30T16:14:16.926Z,2.90
2019-01-30T16:19:22.967Z,3.00
2019-01-30T16:24:28.877Z,2.90
2019-01-30T16:29:34.819Z,2.70
2019-01-30T16:34:40.743Z,2.80
2019-01-30T16:39:46.923Z,2.80
2019-01-30T16:44:52.926Z,2.90
2019-01-30T16:49:58.867Z,3.00
2019-01-30T16:55:05.419Z,3.10
2019-01-30T17:00:16.014Z,3.20
2019-01-30T17:05:22.651Z,3.10
2019-01-30T17:10:28.771Z,2.90
2019-01-30T17:15:34.862Z,2.80
2019-01-30T17:20:41.393Z,2.80
2019-01-30T17:25:48.532Z,2.80
2019-01-30T17:31:13.189Z,2.80
2019-01-30T17:36:19.384Z,2.80
2019-01-30T17:41:26.545Z,2.80
2019-01-30T17:46:32.700Z,2.90
2019-01-30T17:51:38.954Z,2.90
2019-01-30T17:56:45.369Z,2.90
2019-01-30T18:01:51.589Z,3.00
2019-01-30T18:06:57.751Z,3.00
2019-01-30T18:12:04.159Z,2.90
2019-01-30T18:17:10.210Z,3.10
2019-01-30T18:22:16.498Z,3.10
2019-01-30T18:27:22.788Z,3.10
2019-01-30T18:32:28.877Z,3.10
2019-01-30T18:37:34.953Z,3.10
2019-01-30T18:42:41.049Z,3.20
2019-01-30T18:47:47.923Z,3.20
2019-01-30T18:52:54.905Z,3.30
2019-01-30T18:58:01.090Z,3.40
2019-01-30T19:03:10.708Z,3.30
2019-01-30T19:08:16.907Z,3.30
2019-01-30T19:13:23.420Z,3.30
2019-01-30T19:18:29.752Z,3.40
2019-01-30T19:23:35.997Z,3.50
2019-01-30T19:28:56.712Z,3.50
2019-01-30T19:34:02.917Z,3.50
2019-01-30T19:39:10.265Z,3.50
2019-01-30T19:44:16.579Z,3.60
2019-01-30T19:49:23.102Z,3.60
2019-01-30T19:54:29.670Z,3.60
2019-01-30T19:59:36.238Z,3.60
2019-01-30T20:04:42.799Z,3.70
2019-01-30T20:09:49.209Z,3.40
2019-01-30T20:14:55.606Z,3.30
2019-01-30T20:20:02.026Z,3.30
2019-01-30T20:25:12.120Z,3.20
2019-01-30T20:30:21.452Z,3.20
2019-01-30T20:35:28.028Z,3.10
2019-01-30T20:40:36.247Z,3.20
2019-01-30T20:45:42.929Z,3.10
2019-01-30T20:50:52.161Z,3.00
2019-01-30T20:55:58.428Z,3.10
2019-01-30T21:01:05.350Z,3.10
2019-01-30T21:06:11.790Z,3.20
2019-01-30T21:11:17.842Z,3.30
2019-01-30T21:16:24.088Z,3.30
2019-01-30T21:21:30.411Z,3.40
2019-01-30T21:26:37.258Z,3.40
2019-01-30T21:31:43.736Z,3.40
2019-01-30T21:36:49.886Z,3.30
2019-01-30T21:41:56.147Z,3.30
2019-01-30T21:47:02.461Z,3.10
2019-01-30T21:52:08.977Z,3.00
2019-01-30T21:57:15.347Z,3.10
2019-01-30T22:02:21.627Z,3.10
2019-01-30T22:07:28.771Z,3.00
2019-01-30T22:12:35.074Z,3.00
2019-01-30T22:17:41.170Z,3.00
2019-01-30T22:22:47.359Z,2.90
2019-01-30T22:27:53.550Z,2.90
2019-01-30T22:32:59.916Z,2.90
2019-01-30T22:38:12.523Z,2.80
2019-01-30T22:43:13.958Z,2.80
2019-01-30T22:48:20.074Z,2.70
2019-01-30T22:53:26.321Z,2.70
2019-01-30T22:58:32.828Z,2.70
2019-01-30T23:03:57.377Z,2.80
2019-01-30T23:09:50.786Z,2.70
2019-01-30T23:15:07.208Z,2.80
2019-01-30T23:20:29.385Z,2.80
2019-01-30T23:25:56.061Z,2.90
2019-01-30T23:31:23.370Z,2.60
2019-01-30T23:37:09.440Z,2.40
2019-01-30T23:42:36.804Z,2.40
2019-01-30T23:48:15.048Z,2.50
2019-01-30T23:53:58.177Z,2.50
2019-01-30T23:59:28.408Z,2.50
